createdAt,value
2022-09-07T00:02:19.923Z,13.15
2022-09-07T00:04:53.090Z,13.06
2022-09-07T00:07:25.530Z,12.99
2022-09-07T00:09:58.006Z,13.00
2022-09-07T00:12:30.488Z,13.00
2022-09-07T00:15:07.544Z,13.02
2022-09-07T00:17:40.038Z,13.02
2022-09-07T00:20:14.362Z,13.06
2022-09-07T00:22:46.799Z,12.96
2022-09-07T00:25:19.238Z,12.87
2022-09-07T00:27:51.678Z,12.91
2022-09-07T00:30:24.142Z,12.87
2022-09-07T00:32:56.594Z,12.91
2022-09-07T00:35:29.710Z,12.86
2022-09-07T00:38:02.160Z,12.84
2022-09-07T00:40:35.299Z,12.85
2022-09-07T00:43:27.768Z,12.80
2022-09-07T00:46:00.355Z,12.79
2022-09-07T00:48:38.662Z,12.72
2022-09-07T00:51:16.719Z,12.75
2022-09-07T00:53:53.696Z,12.70
2022-09-07T00:56:31.402Z,12.65
2022-09-07T00:59:04.634Z,12.68
2022-09-07T01:01:38.784Z,12.65
2022-09-07T01:04:11.552Z,12.70
2022-09-07T01:06:44.801Z,12.64
2022-09-07T01:09:22.243Z,12.61
2022-09-07T01:11:58.555Z,12.58
2022-09-07T01:14:33.649Z,12.58
2022-09-07T01:17:16.415Z,12.51
2022-09-07T01:20:10.198Z,12.53
2022-09-07T01:23:00.191Z,12.46
2022-09-07T01:25:43.587Z,12.43
2022-09-07T01:28:20.298Z,12.35
2022-09-07T01:30:56.855Z,12.40
2022-09-07T01:33:51.489Z,12.31
2022-09-07T01:36:33.424Z,12.29
2022-09-07T01:39:06.253Z,12.38
2022-09-07T01:41:47.457Z,12.26
2022-09-07T01:44:24.706Z,12.24
2022-09-07T01:47:02.166Z,12.24
2022-09-07T01:49:38.614Z,12.18
2022-09-07T01:52:17.195Z,12.13
2022-09-07T01:54:54.812Z,12.14
2022-09-07T01:57:33.338Z,12.11
2022-09-07T02:00:09.927Z,12.11
2022-09-07T02:02:51.356Z,12.11
2022-09-07T02:05:27.820Z,12.14
2022-09-07T02:08:06.291Z,12.17
2022-09-07T02:10:41.438Z,12.11
2022-09-07T02:13:19.783Z,11.99
2022-09-07T02:15:57.897Z,11.95
2022-09-07T02:18:36.970Z,11.84
2022-09-07T02:21:10.453Z,11.82
2022-09-07T02:23:48.867Z,11.90
2022-09-07T02:26:24.928Z,11.97
2022-09-07T02:28:57.559Z,11.93
2022-09-07T02:31:30.940Z,11.92
2022-09-07T02:34:03.835Z,11.93
2022-09-07T02:36:43.326Z,11.88
2022-09-07T02:39:15.767Z,11.88
2022-09-07T02:41:48.228Z,11.88
2022-09-07T02:44:23.188Z,11.84
2022-09-07T02:47:08.763Z,11.89
2022-09-07T02:50:02.003Z,11.88
2022-09-07T02:52:44.079Z,11.79
2022-09-07T02:55:30.248Z,11.72
2022-09-07T02:58:18.445Z,11.74
2022-09-07T03:00:57.912Z,11.77
2022-09-07T03:03:42.391Z,11.78
2022-09-07T03:06:23.204Z,11.72
2022-09-07T03:08:59.220Z,11.65
2022-09-07T03:11:31.895Z,11.63
2022-09-07T03:14:16.183Z,11.61
2022-09-07T03:16:50.115Z,11.61
2022-09-07T03:19:23.242Z,11.62
2022-09-07T03:21:55.634Z,11.72
2022-09-07T03:24:28.116Z,11.67
2022-09-07T03:27:00.562Z,11.69
2022-09-07T03:29:32.990Z,11.62
2022-09-07T03:32:05.662Z,11.57
2022-09-07T03:34:38.745Z,11.52
2022-09-07T03:37:11.117Z,11.49
2022-09-07T03:39:43.576Z,11.46
2022-09-07T03:42:16.042Z,11.44
2022-09-07T03:44:48.799Z,11.36
2022-09-07T03:47:21.274Z,11.44
2022-09-07T03:49:54.455Z,11.32
2022-09-07T03:52:26.894Z,11.34
2022-09-07T03:54:59.438Z,11.41
2022-09-07T03:57:32.000Z,11.32
2022-09-07T04:00:05.135Z,11.30
2022-09-07T04:02:44.870Z,11.29
2022-09-07T04:05:18.046Z,11.24
2022-09-07T04:07:51.818Z,11.07
2022-09-07T04:10:24.304Z,11.12
2022-09-07T04:12:56.707Z,11.09
2022-09-07T04:15:29.207Z,11.15
2022-09-07T04:18:01.797Z,11.08
2022-09-07T04:20:34.914Z,11.17
2022-09-07T04:23:07.370Z,11.21
2022-09-07T04:25:47.122Z,11.16
2022-09-07T04:28:20.325Z,11.22
2022-09-07T04:30:52.747Z,11.17
2022-09-07T04:33:25.195Z,11.17
2022-09-07T04:35:59.779Z,11.11
2022-09-07T04:38:32.362Z,11.20
2022-09-07T04:41:07.559Z,11.20
2022-09-07T04:43:40.778Z,11.13
2022-09-07T04:46:18.949Z,11.15
2022-09-07T04:48:53.435Z,11.19
2022-09-07T04:51:28.338Z,11.28
2022-09-07T04:54:02.296Z,11.31
2022-09-07T04:56:34.851Z,11.30
2022-09-07T04:59:07.447Z,11.30
2022-09-07T05:01:39.988Z,11.40
2022-09-07T05:04:12.502Z,11.32
2022-09-07T05:06:45.619Z,11.36
2022-09-07T05:09:18.054Z,11.34
2022-09-07T05:11:50.482Z,11.43
2022-09-07T05:14:22.922Z,11.49
2022-09-07T05:16:55.386Z,11.48
2022-09-07T05:19:27.946Z,11.52
2022-09-07T05:22:01.046Z,11.54
2022-09-07T05:24:36.014Z,11.72
2022-09-07T05:27:08.443Z,11.85
2022-09-07T05:32:33.270Z,12.14
2022-09-07T05:35:06.224Z,12.21
2022-09-07T05:37:41.971Z,12.35
2022-09-07T05:40:14.744Z,12.51
2022-09-07T05:42:47.322Z,12.69
2022-09-07T05:45:19.733Z,12.84
2022-09-07T05:47:53.581Z,13.02
2022-09-07T05:50:26.006Z,13.14
2022-09-07T05:52:59.240Z,13.25
2022-09-07T05:55:31.880Z,13.40
2022-09-07T05:58:04.443Z,13.58
2022-09-07T06:00:37.265Z,13.67
2022-09-07T06:03:09.793Z,13.80
2022-09-07T06:05:42.312Z,13.95
2022-09-07T06:08:15.440Z,14.10
2022-09-07T06:10:47.857Z,14.19
2022-09-07T06:13:20.267Z,14.35
2022-09-07T06:15:52.767Z,14.35
2022-09-07T06:18:29.463Z,14.56
2022-09-07T06:21:02.703Z,14.72
2022-09-07T06:23:37.679Z,14.81
2022-09-07T06:26:11.319Z,14.83
2022-09-07T06:28:47.727Z,15.03
2022-09-07T06:31:23.684Z,15.29
2022-09-07T06:33:56.693Z,15.38
2022-09-07T06:36:29.222Z,15.56
2022-09-07T06:39:02.347Z,15.73
2022-09-07T06:44:34.192Z,16.28
2022-09-07T06:47:06.612Z,16.21
2022-09-07T06:49:39.056Z,16.36
2022-09-07T06:52:11.511Z,16.31
2022-09-07T06:55:00.913Z,16.22
2022-09-07T06:57:33.733Z,16.61
2022-09-07T07:00:07.230Z,16.76
2022-09-07T07:02:39.612Z,16.76
2022-09-07T07:05:11.998Z,16.89
2022-09-07T07:07:44.425Z,17.19
2022-09-07T07:10:22.153Z,17.38
2022-09-07T07:12:57.574Z,17.69
2022-09-07T07:15:30.897Z,17.74
2022-09-07T07:18:19.687Z,17.93
2022-09-07T07:20:53.665Z,18.16
2022-09-07T07:23:26.045Z,18.28
2022-09-07T07:26:02.067Z,18.53
2022-09-07T07:31:27.875Z,19.06
2022-09-07T07:34:00.401Z,19.08
2022-09-07T07:36:32.835Z,19.24
2022-09-07T07:39:05.281Z,19.15
2022-09-07T07:41:55.367Z,19.45
2022-09-07T07:44:29.990Z,19.56
2022-09-07T07:47:02.488Z,19.64
2022-09-07T07:49:34.936Z,19.85
2022-09-07T07:55:00.213Z,19.76
2022-09-07T07:57:33.376Z,20.19
2022-09-07T08:00:06.897Z,20.55
2022-09-07T08:02:43.878Z,20.92
2022-09-07T08:05:17.682Z,20.81
2022-09-07T08:07:50.186Z,21.01
2022-09-07T08:10:26.366Z,21.37
2022-09-07T08:12:59.454Z,21.70
2022-09-07T08:15:31.824Z,21.86
2022-09-07T08:18:04.322Z,21.99
2022-09-07T08:20:36.575Z,22.10
2022-09-07T08:23:08.938Z,22.30
2022-09-07T08:25:49.281Z,22.45
2022-09-07T08:28:23.171Z,22.43
2022-09-07T08:30:56.743Z,22.41
2022-09-07T08:33:29.051Z,22.79
2022-09-07T08:36:03.030Z,22.99
2022-09-07T08:38:36.283Z,22.86
2022-09-07T08:41:31.732Z,22.73
2022-09-07T08:44:11.841Z,22.80
2022-09-07T08:46:47.669Z,22.88
2022-09-07T08:49:26.481Z,22.92
2022-09-07T08:52:02.074Z,22.87
2022-09-07T08:54:35.541Z,23.11
2022-09-07T09:06:01.674Z,22.76
2022-09-07T09:08:49.442Z,22.85
2022-09-07T09:11:33.078Z,23.03
2022-09-07T09:14:13.780Z,23.30
2022-09-07T09:16:50.610Z,23.39
2022-09-07T09:19:39.892Z,23.58
2022-09-07T09:22:15.344Z,23.80
2022-09-07T09:24:49.747Z,23.90
2022-09-07T09:27:22.091Z,23.92
2022-09-07T09:29:54.433Z,24.15
2022-09-07T09:32:35.430Z,24.22
2022-09-07T09:35:15.430Z,24.42
2022-09-07T09:37:48.431Z,24.46
2022-09-07T09:40:24.404Z,24.72
2022-09-07T09:43:02.439Z,24.49
2022-09-07T09:48:33.437Z,24.49
2022-09-07T09:54:05.589Z,24.57
2022-09-07T09:56:39.809Z,24.85
2022-09-07T10:05:27.140Z,25.72
2022-09-07T10:07:59.276Z,25.23
2022-09-07T10:10:32.234Z,24.76
2022-09-07T10:13:08.003Z,25.00
2022-09-07T10:15:41.602Z,25.09
2022-09-07T10:18:20.593Z,25.00
2022-09-07T10:20:52.913Z,25.13
2022-09-07T10:23:27.431Z,25.24
2022-09-07T10:26:20.854Z,25.25
2022-09-07T10:29:07.283Z,25.59
2022-09-07T10:31:53.926Z,25.48
2022-09-07T10:34:35.475Z,25.43
2022-09-07T10:37:09.844Z,25.66
2022-09-07T10:39:49.414Z,25.79
2022-09-07T10:42:28.398Z,26.12
2022-09-07T10:45:11.639Z,26.35
2022-09-07T10:48:00.170Z,26.30
2022-09-07T10:50:39.254Z,26.55
2022-09-07T10:53:41.942Z,26.46
2022-09-07T10:56:21.423Z,26.54
2022-09-07T10:59:05.851Z,26.40
2022-09-07T11:01:48.300Z,26.43
2022-09-07T11:04:48.559Z,26.45
2022-09-07T11:07:43.106Z,26.35
2022-09-07T11:10:25.453Z,26.54
2022-09-07T11:13:00.906Z,26.66
2022-09-07T11:15:39.666Z,26.12
2022-09-07T11:18:16.450Z,26.60
2022-09-07T11:20:54.611Z,26.95
2022-09-07T11:23:36.757Z,27.13
2022-09-07T11:26:17.387Z,27.05
2022-09-07T11:31:50.995Z,26.90
2022-09-07T11:34:29.212Z,27.14
2022-09-07T11:37:08.361Z,27.33
2022-09-07T11:39:46.119Z,27.17
2022-09-07T11:45:24.166Z,27.07
2022-09-07T11:48:00.357Z,27.01
2022-09-07T11:50:37.761Z,26.87
2022-09-07T11:53:21.748Z,26.74
2022-09-07T11:55:57.050Z,26.76
2022-09-07T11:58:48.309Z,26.93
2022-09-07T12:01:33.326Z,27.23
2022-09-07T12:04:30.150Z,27.41
2022-09-07T12:07:36.296Z,27.62
2022-09-07T12:10:32.699Z,27.66
2022-09-07T12:13:30.861Z,27.51
2022-09-07T12:16:10.072Z,27.38
2022-09-07T12:19:11.931Z,27.79
2022-09-07T12:21:48.411Z,27.28
2022-09-07T12:24:40.215Z,27.15
2022-09-07T12:27:42.719Z,27.11
2022-09-07T12:30:53.861Z,27.66
2022-09-07T12:33:45.347Z,27.72
2022-09-07T12:36:41.432Z,27.68
2022-09-07T12:39:24.543Z,27.87
2022-09-07T12:42:37.550Z,27.85
2022-09-07T12:45:49.952Z,28.10
2022-09-07T12:48:35.218Z,28.19
2022-09-07T12:51:15.223Z,27.66
2022-09-07T12:53:58.475Z,27.57
2022-09-07T12:56:42.181Z,27.08
2022-09-07T12:59:45.143Z,26.70
2022-09-07T13:02:38.486Z,26.47
2022-09-07T13:05:19.865Z,26.70
2022-09-07T13:08:16.362Z,26.91
2022-09-07T13:10:49.486Z,27.07
2022-09-07T13:16:30.004Z,26.64
2022-09-07T13:19:04.866Z,26.54
2022-09-07T13:21:39.829Z,26.30
2022-09-07T13:24:46.515Z,26.23
2022-09-07T13:27:51.087Z,26.13
2022-09-07T13:30:43.781Z,26.12
2022-09-07T13:33:42.017Z,25.87
2022-09-07T13:36:24.754Z,25.95
2022-09-07T13:38:57.970Z,25.88
2022-09-07T13:41:36.826Z,25.76
2022-09-07T13:44:25.614Z,25.86
2022-09-07T13:47:05.827Z,25.92
2022-09-07T13:49:55.670Z,25.61
2022-09-07T13:52:43.484Z,25.68
2022-09-07T13:55:29.135Z,25.64
2022-09-07T13:58:12.638Z,25.46
2022-09-07T14:00:56.096Z,25.46
2022-09-07T14:03:35.834Z,25.50
2022-09-07T14:06:26.073Z,25.52
2022-09-07T14:09:01.061Z,25.42
2022-09-07T14:11:42.224Z,25.45
2022-09-07T14:14:17.899Z,25.58
2022-09-07T14:16:56.174Z,25.51
2022-09-07T14:19:36.632Z,25.52
2022-09-07T14:22:13.957Z,25.62
2022-09-07T14:24:48.298Z,25.36
2022-09-07T14:27:22.945Z,25.42
2022-09-07T14:29:55.244Z,25.46
2022-09-07T14:32:27.730Z,25.51
2022-09-07T14:35:02.825Z,25.56
2022-09-07T14:37:36.575Z,25.54
2022-09-07T14:40:14.884Z,25.26
2022-09-07T14:42:49.855Z,25.34
2022-09-07T14:45:33.620Z,25.24
2022-09-07T14:48:13.055Z,25.05
2022-09-07T14:51:00.869Z,25.07
2022-09-07T14:53:38.337Z,24.80
2022-09-07T14:56:10.753Z,24.78
2022-09-07T14:58:43.083Z,24.78
2022-09-07T15:01:37.572Z,24.59
2022-09-07T15:04:18.084Z,24.59
2022-09-07T15:07:06.357Z,24.65
2022-09-07T15:09:38.722Z,24.61
2022-09-07T15:12:18.966Z,24.50
2022-09-07T15:14:51.440Z,24.48
2022-09-07T15:17:45.716Z,24.40
2022-09-07T15:20:34.798Z,24.23
2022-09-07T15:23:11.855Z,24.27
2022-09-07T15:25:50.667Z,24.26
2022-09-07T15:34:14.943Z,23.93
2022-09-07T15:36:49.796Z,23.98
2022-09-07T15:39:25.376Z,23.92
2022-09-07T15:42:00.397Z,23.77
2022-09-07T15:44:33.092Z,23.76
2022-09-07T15:49:57.859Z,23.71
2022-09-07T15:52:31.492Z,23.70
2022-09-07T15:55:07.997Z,23.64
2022-09-07T15:58:09.056Z,23.56
2022-09-07T16:00:33.143Z,23.33
2022-09-07T16:03:06.797Z,23.29
2022-09-07T16:05:40.360Z,23.24
2022-09-07T16:08:32.729Z,23.21
2022-09-07T16:11:18.656Z,23.14
2022-09-07T16:14:02.864Z,23.12
2022-09-07T16:19:27.751Z,23.09
2022-09-07T16:22:00.084Z,23.03
2022-09-07T16:24:33.515Z,23.01
2022-09-07T16:27:06.561Z,22.98
2022-09-07T16:29:38.960Z,22.92
2022-09-07T16:35:03.923Z,22.86
2022-09-07T16:37:36.884Z,22.79
2022-09-07T16:40:10.068Z,22.75
2022-09-07T16:42:43.055Z,22.74
2022-09-07T16:48:07.804Z,22.57
2022-09-07T16:50:40.110Z,22.48
2022-09-07T16:53:12.414Z,22.39
2022-09-07T16:55:44.723Z,22.30
2022-09-07T17:01:12.225Z,22.04
2022-09-07T17:03:45.158Z,21.90
2022-09-07T17:06:19.511Z,21.84
2022-09-07T17:08:52.311Z,21.63
2022-09-07T17:11:29.047Z,21.54
2022-09-07T17:14:04.302Z,21.41
2022-09-07T17:16:38.402Z,21.32
2022-09-07T17:22:05.075Z,21.18
2022-09-07T17:24:37.356Z,21.15
2022-09-07T17:27:09.694Z,21.05
2022-09-07T17:29:42.626Z,20.98
2022-09-07T17:32:23.772Z,20.77
2022-09-07T17:34:58.972Z,20.64
2022-09-07T17:37:31.723Z,20.59
2022-09-07T17:40:05.973Z,20.55
2022-09-07T17:45:36.676Z,20.39
2022-09-07T17:48:09.095Z,20.38
2022-09-07T17:50:42.594Z,20.33
2022-09-07T17:53:15.545Z,20.10
2022-09-07T17:55:47.868Z,20.03
2022-09-07T17:58:20.328Z,19.96
2022-09-07T18:00:53.855Z,19.75
2022-09-07T18:03:29.116Z,19.62
2022-09-07T18:06:05.692Z,19.65
2022-09-07T18:08:38.271Z,19.68
2022-09-07T18:14:06.035Z,19.50
2022-09-07T18:16:40.019Z,19.45
2022-09-07T18:19:13.651Z,19.38
2022-09-07T18:21:47.267Z,19.32
2022-09-07T18:24:27.419Z,19.17
2022-09-07T18:27:02.620Z,19.11
2022-09-07T18:29:35.247Z,19.02
2022-09-07T18:32:09.450Z,18.95
2022-09-07T18:34:44.792Z,18.85
2022-09-07T18:37:19.671Z,18.78
2022-09-07T18:39:54.385Z,18.67
2022-09-07T18:42:28.334Z,18.60
2022-09-07T18:47:55.002Z,18.48
2022-09-07T18:50:27.500Z,18.38
2022-09-07T18:53:14.090Z,18.34
2022-09-07T18:55:49.099Z,18.23
2022-09-07T18:58:24.368Z,18.11
2022-09-07T19:00:57.673Z,18.02
2022-09-07T19:03:30.975Z,17.98
2022-09-07T19:06:05.591Z,17.93
2022-09-07T19:08:39.708Z,17.80
2022-09-07T19:11:16.091Z,17.78
2022-09-07T19:13:48.576Z,17.75
2022-09-07T19:16:22.271Z,17.76
2022-09-07T19:18:56.853Z,17.67
2022-09-07T19:21:31.755Z,17.66
2022-09-07T19:24:06.417Z,17.60
2022-09-07T19:26:41.048Z,17.54
2022-09-07T19:29:16.189Z,17.47
2022-09-07T19:32:06.310Z,17.26
2022-09-07T19:34:41.456Z,17.35
2022-09-07T19:37:13.800Z,17.26
2022-09-07T19:39:47.884Z,17.20
2022-09-07T19:42:20.858Z,17.20
2022-09-07T19:44:56.878Z,17.14
2022-09-07T19:47:29.490Z,17.14
2022-09-07T19:50:02.868Z,17.13
2022-09-07T19:52:35.287Z,17.11
2022-09-07T19:55:08.535Z,17.05
2022-09-07T19:57:46.225Z,16.99
2022-09-07T20:00:18.730Z,16.96
2022-09-07T20:02:53.414Z,16.82
2022-09-07T20:05:31.354Z,16.86
2022-09-07T20:08:03.783Z,16.85
2022-09-07T20:10:36.248Z,16.81
2022-09-07T20:13:08.567Z,16.75
2022-09-07T20:15:41.537Z,16.72
2022-09-07T20:18:14.035Z,16.67
2022-09-07T20:20:47.185Z,16.58
2022-09-07T20:23:19.575Z,16.58
2022-09-07T20:25:58.926Z,16.57
2022-09-07T20:28:31.388Z,16.55
2022-09-07T20:31:08.196Z,16.49
2022-09-07T20:33:41.051Z,16.35
2022-09-07T20:36:15.851Z,16.24
2022-09-07T20:38:49.912Z,16.23
2022-09-07T20:41:24.117Z,16.18
2022-09-07T20:43:58.328Z,16.17
2022-09-07T20:46:31.322Z,16.17
2022-09-07T20:49:04.594Z,16.16
2022-09-07T20:51:38.684Z,16.07
2022-09-07T20:54:11.063Z,16.05
2022-09-07T20:56:43.354Z,15.91
2022-09-07T20:59:15.654Z,15.84
2022-09-07T21:01:48.737Z,15.81
2022-09-07T21:04:25.536Z,15.77
2022-09-07T21:06:58.500Z,15.70
2022-09-07T21:09:30.804Z,15.68
2022-09-07T21:12:03.331Z,15.63
2022-09-07T21:14:35.677Z,15.66
2022-09-07T21:17:07.975Z,15.59
2022-09-07T21:19:40.282Z,15.57
2022-09-07T21:22:13.335Z,15.49
2022-09-07T21:24:45.889Z,15.47
2022-09-07T21:27:18.166Z,15.55
2022-09-07T21:29:50.851Z,15.58
2022-09-07T21:32:23.220Z,15.53
2022-09-07T21:34:55.687Z,15.54
2022-09-07T21:37:28.707Z,15.54
2022-09-07T21:40:02.527Z,15.50
2022-09-07T21:42:35.036Z,15.50
2022-09-07T21:45:08.567Z,15.44
2022-09-07T21:47:40.864Z,15.37
2022-09-07T21:50:13.167Z,15.40
2022-09-07T21:52:46.130Z,15.30
2022-09-07T21:55:18.468Z,15.33
2022-09-07T21:57:50.763Z,15.29
2022-09-07T22:00:23.407Z,15.22
2022-09-07T22:02:55.669Z,15.25
2022-09-07T22:05:28.007Z,15.25
2022-09-07T22:08:01.133Z,15.16
2022-09-07T22:10:33.707Z,15.18
2022-09-07T22:13:06.055Z,15.16
2022-09-07T22:15:40.139Z,15.10
2022-09-07T22:18:12.554Z,15.00
2022-09-07T22:20:44.884Z,15.03
2022-09-07T22:23:17.986Z,14.97
2022-09-07T22:25:53.084Z,14.95
2022-09-07T22:28:25.431Z,14.94
2022-09-07T22:31:08.480Z,14.90
2022-09-07T22:33:41.922Z,14.91
2022-09-07T22:36:16.227Z,14.90
2022-09-07T22:38:51.965Z,14.84
2022-09-07T22:41:26.735Z,14.79
2022-09-07T22:44:06.957Z,14.50
2022-09-07T22:46:41.733Z,14.71
2022-09-07T22:49:15.580Z,14.70
2022-09-07T22:51:47.918Z,14.62
2022-09-07T22:54:21.154Z,14.55
2022-09-07T22:56:53.508Z,14.46
2022-09-07T22:59:25.904Z,14.45
2022-09-07T23:01:58.225Z,14.36
2022-09-07T23:04:31.815Z,14.43
2022-09-07T23:07:06.862Z,14.35
2022-09-07T23:09:39.858Z,14.31
2022-09-07T23:12:12.139Z,14.33
2022-09-07T23:14:44.447Z,14.27
2022-09-07T23:17:16.996Z,14.25
2022-09-07T23:19:49.281Z,14.21
2022-09-07T23:22:21.607Z,14.26
2022-09-07T23:24:54.722Z,14.21
2022-09-07T23:27:27.211Z,14.19
2022-09-07T23:29:59.510Z,14.10
2022-09-07T23:32:31.918Z,14.10
2022-09-07T23:35:05.293Z,13.96
2022-09-07T23:37:37.624Z,14.02
2022-09-07T23:40:11.033Z,14.00
2022-09-07T23:42:43.399Z,13.95
2022-09-07T23:45:15.902Z,13.91
2022-09-07T23:47:48.251Z,13.94
2022-09-07T23:50:20.542Z,13.94
2022-09-07T23:52:52.844Z,13.95
2022-09-07T23:55:25.899Z,13.89
2022-09-07T23:57:58.207Z,13.88
